Salluit, Salluit Airport (CYZG)

NameSalluit Airport
CitySalluit
CountryCanada
ICAOCYZG
IATAYZG
Altitude226 m
CoordinatesGoogle Map
Live Air TrafficLiveATC.net
METARCYZG 141700Z 17018KT 3SM IC BR DRSN FEW002 M15/M17 A2939 RMK ST1 SLP980
2019-11-14 17:00:00 Wind: South-Southeast (170°) 9.26 m/s - Visibility: 4828.02 m - Weather: Ice crystals / Mist - Temperature: -15 °C - Dew point: -17 °C - Humidity: 84.9% - Pressure: 995.26 hPa

Sorry, no flights used the airport in this database.